Zolotoj, Russia
Current Conditions -  °F | °C
As of 7:00 PM on Thursday 23 Oct 2014 (Local Time) from UHSS Reporting Station
Clear Clear  
Wind Chill: 36°   Ceiling: Unl
Heat Index: 39°   Visibility: 6mi
Dew Point: 30°   Wind: 4mph
Humidity: 70%   Direction: 180°S
Pressure: 29.97"   Gusts: NA
Location:  47.32°N, 138.98°E
Report Text: UHSS 230900Z 18002MPS 9999 NSC 04/M01 Q1015 NOSIG RMKQFE760/1014 01CLRD70
Loading
Personal Weather Stations






























Interactive Weather Map
Tropical Storm Tracking
New forecast layout! Learn more

10-Day Weather Forecast

Advertisements
Track Severe Weather on mobile